createdAt,value
2023-04-20T00:02:15.610Z,10.60
2023-04-20T00:04:42.642Z,10.30
2023-04-20T00:07:09.719Z,11.32
2023-04-20T00:09:36.520Z,9.35
2023-04-20T00:12:03.223Z,12.15
2023-04-20T00:14:29.970Z,10.82
2023-04-20T00:16:56.717Z,12.20
2023-04-20T00:19:24.005Z,13.60
2023-04-20T00:21:50.723Z,10.50
2023-04-20T00:24:17.476Z,13.90
2023-04-20T00:26:44.219Z,10.27
2023-04-20T00:29:11.286Z,11.35
2023-04-20T00:31:37.976Z,10.55
2023-04-20T00:34:04.996Z,11.88
2023-04-20T00:36:31.658Z,12.27
2023-04-20T00:38:58.851Z,12.70
2023-04-20T00:41:25.482Z,13.48
2023-04-20T00:43:55.492Z,12.45
2023-04-20T00:46:22.547Z,12.27
2023-04-20T00:48:53.898Z,14.40
2023-04-20T00:51:22.447Z,13.88
2023-04-20T00:53:49.208Z,14.27
2023-04-20T00:56:19.503Z,13.50
2023-04-20T00:58:46.898Z,12.82
2023-04-20T01:01:17.681Z,14.30
2023-04-20T01:03:45.823Z,15.10
2023-04-20T01:06:16.000Z,15.02
2023-04-20T01:08:51.055Z,13.55
2023-04-20T01:11:18.297Z,14.10
2023-04-20T01:13:45.144Z,16.17
2023-04-20T01:16:12.827Z,14.95
2023-04-20T01:18:48.319Z,13.77
2023-04-20T01:21:17.362Z,15.23
2023-04-20T01:23:44.981Z,15.15
2023-04-20T01:26:14.513Z,15.45
2023-04-20T01:28:41.375Z,15.43
2023-04-20T01:31:09.153Z,15.20
2023-04-20T01:33:36.426Z,14.65
2023-04-20T01:36:04.938Z,16.02
2023-04-20T01:38:32.977Z,14.35
2023-04-20T01:41:00.101Z,14.75
2023-04-20T01:43:27.571Z,15.50
2023-04-20T01:45:54.292Z,14.18
2023-04-20T01:48:21.000Z,15.63
2023-04-20T01:50:51.613Z,17.70
2023-04-20T01:53:18.811Z,16.73
2023-04-20T01:55:45.704Z,19.33
2023-04-20T01:58:12.410Z,16.83
2023-04-20T02:00:39.261Z,16.95
2023-04-20T02:03:06.511Z,14.68
2023-04-20T02:05:33.396Z,16.25
2023-04-20T02:08:00.046Z,16.30
2023-04-20T02:10:26.800Z,18.25
2023-04-20T02:12:53.437Z,14.68
2023-04-20T02:15:20.189Z,18.00
2023-04-20T02:17:47.162Z,14.98
2023-04-20T02:20:14.708Z,18.30
2023-04-20T02:22:41.376Z,16.50
2023-04-20T02:25:09.126Z,17.00
2023-04-20T02:27:35.863Z,17.45
2023-04-20T02:30:02.608Z,16.63
2023-04-20T02:32:29.307Z,17.33
2023-04-20T02:34:56.048Z,16.88
2023-04-20T02:37:22.738Z,17.25
2023-04-20T02:39:49.626Z,18.75
2023-04-20T02:42:16.505Z,16.65
2023-04-20T02:44:43.196Z,16.65
2023-04-20T02:47:09.852Z,17.35
2023-04-20T02:49:37.040Z,18.20
2023-04-20T02:52:03.794Z,16.65
2023-04-20T02:54:30.507Z,20.25
2023-04-20T02:56:58.707Z,17.40
2023-04-20T02:59:25.392Z,18.05
2023-04-20T03:01:52.140Z,17.67
2023-04-20T03:04:19.399Z,18.55
2023-04-20T03:06:46.545Z,20.08
2023-04-20T03:09:13.287Z,20.75
2023-04-20T03:11:39.928Z,18.52
2023-04-20T03:14:06.776Z,19.02
2023-04-20T03:16:33.504Z,21.75
2023-04-20T03:19:00.185Z,20.63
2023-04-20T03:21:26.832Z,19.92
2023-04-20T03:23:53.755Z,21.00
2023-04-20T03:26:20.476Z,20.23
2023-04-20T03:28:47.132Z,21.00
2023-04-20T03:31:13.889Z,19.80
2023-04-20T03:33:40.643Z,21.38
2023-04-20T03:36:07.672Z,22.90
2023-04-20T03:38:34.330Z,22.88
2023-04-20T03:41:01.345Z,20.33
2023-04-20T03:43:28.014Z,21.98
2023-04-20T03:45:55.696Z,21.15
2023-04-20T03:48:22.399Z,20.90
2023-04-20T03:50:49.079Z,21.58
2023-04-20T03:53:15.779Z,19.83
2023-04-20T03:55:42.415Z,21.77
2023-04-20T03:58:09.305Z,20.92
2023-04-20T04:00:36.010Z,21.75
2023-04-20T04:03:02.774Z,21.98
2023-04-20T04:05:29.635Z,21.73
2023-04-20T04:07:56.288Z,21.45
2023-04-20T04:10:23.069Z,20.27
2023-04-20T04:12:49.693Z,22.85
2023-04-20T04:15:16.402Z,24.15
2023-04-20T04:17:43.079Z,23.20
2023-04-20T04:20:11.534Z,23.20
2023-04-20T04:22:38.402Z,23.77
2023-04-20T04:25:05.770Z,23.95
2023-04-20T04:27:34.892Z,21.02
2023-04-20T04:30:02.708Z,23.98
2023-04-20T04:32:29.425Z,23.02
2023-04-20T04:34:56.324Z,21.75
2023-04-20T04:37:23.081Z,21.67
2023-04-20T04:39:51.118Z,24.08
2023-04-20T04:42:17.767Z,24.15
2023-04-20T04:44:44.987Z,21.80
2023-04-20T04:47:14.502Z,22.73
2023-04-20T04:49:41.213Z,22.70
2023-04-20T04:52:08.939Z,24.38
2023-04-20T04:54:35.690Z,23.15
2023-04-20T04:57:02.899Z,22.40
2023-04-20T04:59:29.626Z,23.60
2023-04-20T05:01:56.403Z,21.95
2023-04-20T05:04:23.230Z,24.65
2023-04-20T05:06:50.029Z,21.13
2023-04-20T05:09:16.969Z,21.30
2023-04-20T05:11:43.814Z,24.73
2023-04-20T05:14:10.633Z,21.85
2023-04-20T05:16:37.336Z,23.85
2023-04-20T05:19:04.102Z,19.83
2023-04-20T05:21:30.925Z,19.88
2023-04-20T05:23:57.576Z,21.60
2023-04-20T05:26:24.238Z,24.13
2023-04-20T05:28:51.353Z,21.17
2023-04-20T05:31:18.053Z,20.65
2023-04-20T05:33:44.782Z,20.73
2023-04-20T05:36:11.479Z,20.58
2023-04-20T05:38:38.435Z,22.13
2023-04-20T05:41:05.435Z,21.80
2023-04-20T05:43:32.179Z,20.48
2023-04-20T05:45:59.059Z,20.42
2023-04-20T05:48:29.892Z,21.08
2023-04-20T05:50:56.895Z,22.30
2023-04-20T05:53:23.569Z,22.33
2023-04-20T05:55:50.245Z,21.80
2023-04-20T05:58:17.365Z,22.30
2023-04-20T06:00:44.464Z,23.48
2023-04-20T06:03:11.513Z,22.88
2023-04-20T06:05:38.403Z,21.45
2023-04-20T06:08:05.160Z,24.02
2023-04-20T06:10:34.259Z,23.27
2023-04-20T06:13:01.258Z,20.20
2023-04-20T06:15:28.113Z,19.45
2023-04-20T06:17:54.986Z,22.33
2023-04-20T06:20:22.040Z,21.20
2023-04-20T06:22:49.021Z,21.15
2023-04-20T06:25:16.007Z,20.65
2023-04-20T06:27:42.822Z,22.25
2023-04-20T06:30:10.101Z,21.77
2023-04-20T06:32:37.873Z,19.48
2023-04-20T06:35:06.274Z,17.38
2023-04-20T06:37:33.279Z,17.95
2023-04-20T06:39:59.936Z,17.27
2023-04-20T06:42:27.186Z,19.30
2023-04-20T06:44:53.939Z,16.92
2023-04-20T06:47:20.803Z,17.52
2023-04-20T06:49:47.565Z,20.20
2023-04-20T06:52:14.217Z,20.65
2023-04-20T06:54:40.904Z,20.98
2023-04-20T06:57:07.590Z,18.92
2023-04-20T06:59:34.358Z,19.02
2023-04-20T07:02:01.657Z,19.38
2023-04-20T07:04:28.508Z,18.90
2023-04-20T07:06:55.350Z,16.73
2023-04-20T07:09:23.120Z,16.42
2023-04-20T07:11:49.995Z,21.30
2023-04-20T07:14:16.832Z,23.88
2023-04-20T07:16:43.589Z,20.88
2023-04-20T07:19:10.425Z,21.40
2023-04-20T07:21:37.331Z,21.33
2023-04-20T07:24:04.194Z,20.95
2023-04-20T07:26:31.168Z,18.60
2023-04-20T07:28:57.877Z,18.40
2023-04-20T07:31:24.655Z,19.45
2023-04-20T07:33:51.575Z,17.20
2023-04-20T07:36:18.342Z,17.45
2023-04-20T07:38:45.215Z,17.70
2023-04-20T07:41:11.998Z,18.45
2023-04-20T07:43:41.537Z,17.30
2023-04-20T07:46:08.347Z,15.48
2023-04-20T07:48:35.285Z,15.55
2023-04-20T07:51:02.241Z,15.95
2023-04-20T07:53:29.679Z,17.02
2023-04-20T07:55:56.367Z,17.65
2023-04-20T07:58:23.063Z,15.30
2023-04-20T08:00:49.840Z,15.98
2023-04-20T08:03:16.933Z,15.27
2023-04-20T08:05:43.985Z,14.95
2023-04-20T08:08:10.805Z,14.18
2023-04-20T08:10:37.512Z,14.88
2023-04-20T08:13:04.343Z,14.60
2023-04-20T08:15:31.635Z,13.45
2023-04-20T08:17:58.932Z,13.00
2023-04-20T08:20:25.715Z,14.23
2023-04-20T08:22:53.281Z,13.88
2023-04-20T08:25:20.382Z,15.48
2023-04-20T08:27:47.283Z,14.65
2023-04-20T08:30:14.167Z,13.90
2023-04-20T08:32:41.182Z,13.43
2023-04-20T08:35:08.708Z,12.25
2023-04-20T08:37:35.725Z,12.80
2023-04-20T08:40:02.383Z,11.40
2023-04-20T08:42:29.104Z,13.18
2023-04-20T08:44:55.758Z,13.40
2023-04-20T08:47:22.840Z,12.38
2023-04-20T08:49:53.232Z,13.10
2023-04-20T08:52:20.011Z,14.50
2023-04-20T08:54:56.158Z,11.98
2023-04-20T08:57:25.252Z,12.02
2023-04-20T08:59:52.084Z,12.32
2023-04-20T09:02:18.872Z,11.75
2023-04-20T09:04:49.134Z,12.05
2023-04-20T09:07:21.133Z,12.60
2023-04-20T09:09:58.690Z,11.35
2023-04-20T09:12:25.785Z,10.65
2023-04-20T09:14:53.694Z,10.32
2023-04-20T09:17:36.113Z,10.75
2023-04-20T09:20:05.068Z,15.18
2023-04-20T09:22:34.039Z,11.13
2023-04-20T09:25:11.943Z,9.02
2023-04-20T09:27:38.686Z,4.43
2023-04-20T09:30:06.695Z,7.85
2023-04-20T09:32:33.849Z,5.13
2023-04-20T09:35:00.525Z,6.85
2023-04-20T09:37:27.393Z,5.55
2023-04-20T09:40:00.265Z,5.45
2023-04-20T09:42:28.814Z,8.90
2023-04-20T09:44:56.929Z,6.47
2023-04-20T09:47:26.014Z,8.68
2023-04-20T09:49:54.056Z,11.05
2023-04-20T09:52:21.053Z,11.32
2023-04-20T09:54:48.180Z,10.98
2023-04-20T09:57:15.199Z,11.07
2023-04-20T09:59:46.981Z,11.20
2023-04-20T10:02:14.423Z,12.43
2023-04-20T10:04:54.724Z,14.05
2023-04-20T10:07:28.964Z,11.20
2023-04-20T10:10:16.172Z,13.27
2023-04-20T10:12:54.260Z,11.88
2023-04-20T10:15:21.949Z,10.35
2023-04-20T10:17:49.457Z,4.35
2023-04-20T10:20:23.749Z,3.33
2023-04-20T10:23:06.540Z,3.63
2023-04-20T10:25:33.315Z,2.97
2023-04-20T10:28:04.596Z,3.60
2023-04-20T10:30:32.477Z,3.40
2023-04-20T10:33:12.740Z,3.40
2023-04-20T10:35:55.041Z,3.20
2023-04-20T10:38:32.741Z,3.00
2023-04-20T10:41:07.230Z,3.50
2023-04-20T10:46:02.398Z,4.30
2023-04-20T10:48:29.237Z,3.97
2023-04-20T10:50:56.290Z,4.78
2023-04-20T10:53:24.061Z,4.05
2023-04-20T10:56:00.710Z,4.57
2023-04-20T10:58:27.836Z,3.70
2023-04-20T11:01:01.967Z,4.18
2023-04-20T11:03:30.931Z,3.70
2023-04-20T11:06:01.717Z,3.70
2023-04-20T11:08:39.864Z,3.47
2023-04-20T11:11:21.054Z,3.55
2023-04-20T11:13:48.578Z,4.45
2023-04-20T11:16:17.744Z,3.90
2023-04-20T11:18:53.580Z,5.32
2023-04-20T11:21:21.764Z,3.70
2023-04-20T11:23:49.627Z,3.90
2023-04-20T11:26:17.099Z,3.97
2023-04-20T11:28:55.965Z,5.05
2023-04-20T11:31:23.473Z,4.10
2023-04-20T11:33:50.451Z,3.47
2023-04-20T11:36:24.703Z,4.20
2023-04-20T11:38:51.494Z,5.03
2023-04-20T11:41:18.705Z,3.70
2023-04-20T11:43:46.289Z,3.67
2023-04-20T11:46:18.218Z,3.67
2023-04-20T11:48:46.243Z,3.95
2023-04-20T11:51:13.503Z,3.83
2023-04-20T11:53:40.870Z,3.70
2023-04-20T11:56:08.699Z,5.32
2023-04-20T11:58:36.298Z,4.18
2023-04-20T12:01:03.154Z,4.25
2023-04-20T12:03:30.143Z,4.03
2023-04-20T12:05:57.068Z,4.40
2023-04-20T12:08:24.838Z,4.78
2023-04-20T12:10:51.580Z,4.68
2023-04-20T12:13:18.334Z,4.47
2023-04-20T12:15:45.259Z,4.82
2023-04-20T12:18:12.088Z,5.85
2023-04-20T12:20:38.861Z,4.88
2023-04-20T12:23:05.568Z,5.00
2023-04-20T12:25:32.335Z,4.90
2023-04-20T12:27:59.083Z,4.60
2023-04-20T12:30:26.013Z,4.97
2023-04-20T12:32:52.779Z,4.63
2023-04-20T12:35:20.713Z,4.72
2023-04-20T12:37:47.467Z,4.40
2023-04-20T12:40:14.335Z,4.60
2023-04-20T12:42:41.055Z,5.28
2023-04-20T12:45:08.374Z,4.38
2023-04-20T12:47:35.106Z,5.15
2023-04-20T12:50:02.141Z,4.70
2023-04-20T12:52:29.385Z,5.55
2023-04-20T12:54:56.075Z,5.05
2023-04-20T12:57:22.746Z,5.28
2023-04-20T12:59:49.390Z,5.50
2023-04-20T13:02:17.642Z,5.22
2023-04-20T13:04:45.493Z,5.85
2023-04-20T13:07:12.282Z,5.63
2023-04-20T13:09:39.166Z,6.40
2023-04-20T13:12:06.066Z,6.32
2023-04-20T13:14:32.851Z,7.03
2023-04-20T13:17:01.917Z,7.22
2023-04-20T13:19:30.411Z,6.60
2023-04-20T13:21:57.608Z,6.75
2023-04-20T13:24:24.318Z,7.70
2023-04-20T13:26:53.166Z,7.45
2023-04-20T13:29:20.110Z,7.35
2023-04-20T13:31:48.387Z,8.07
2023-04-20T13:34:15.493Z,8.30
2023-04-20T13:36:42.615Z,7.97
2023-04-20T13:39:10.784Z,8.07
2023-04-20T13:41:37.901Z,8.07
2023-04-20T13:44:05.198Z,8.95
2023-04-20T13:46:32.294Z,9.43
2023-04-20T13:48:58.979Z,9.15
2023-04-20T13:51:27.270Z,9.68
2023-04-20T13:53:53.916Z,9.02
2023-04-20T13:56:21.032Z,9.45
2023-04-20T13:58:47.688Z,9.07
2023-04-20T14:01:17.879Z,9.77
2023-04-20T14:03:44.899Z,8.88
2023-04-20T14:06:11.725Z,9.70
2023-04-20T14:08:38.654Z,8.77
2023-04-20T14:11:05.502Z,9.07
2023-04-20T14:13:32.379Z,9.25
2023-04-20T14:15:59.088Z,10.13
2023-04-20T14:18:25.799Z,9.00
2023-04-20T14:20:52.575Z,9.27
2023-04-20T14:23:19.786Z,8.20
2023-04-20T14:25:46.488Z,8.73
2023-04-20T14:28:15.083Z,8.52
2023-04-20T14:30:43.150Z,9.23
2023-04-20T14:33:09.806Z,8.63
2023-04-20T14:35:37.215Z,10.02
2023-04-20T14:38:04.081Z,7.97
2023-04-20T14:40:31.783Z,9.00
2023-04-20T14:42:58.508Z,8.55
2023-04-20T14:45:25.314Z,10.70
2023-04-20T14:47:56.982Z,9.48
2023-04-20T14:50:27.516Z,10.48
2023-04-20T14:52:55.228Z,9.70
2023-04-20T14:55:24.616Z,9.43
2023-04-20T14:57:57.040Z,9.77
2023-04-20T15:00:30.044Z,10.25
2023-04-20T15:02:57.443Z,10.75
2023-04-20T15:05:27.919Z,10.05
2023-04-20T15:07:54.718Z,9.25
2023-04-20T15:10:21.798Z,8.88
2023-04-20T15:12:49.046Z,10.10
2023-04-20T15:15:16.702Z,9.18
2023-04-20T15:17:44.635Z,8.70
2023-04-20T15:20:11.839Z,8.57
2023-04-20T15:22:38.725Z,8.77
2023-04-20T15:25:06.242Z,8.57
2023-04-20T15:27:34.219Z,9.05
2023-04-20T15:30:00.919Z,17.92
2023-04-20T15:32:30.068Z,10.00
2023-04-20T15:34:57.230Z,9.68
2023-04-20T15:37:23.918Z,9.68
2023-04-20T15:39:51.432Z,8.45
2023-04-20T15:42:18.738Z,8.63
2023-04-20T15:44:45.577Z,8.60
2023-04-20T15:47:12.256Z,10.45
2023-04-20T15:49:40.654Z,10.20
2023-04-20T15:52:11.276Z,9.40
2023-04-20T15:54:38.347Z,9.88
2023-04-20T15:57:05.490Z,8.52
2023-04-20T15:59:32.549Z,8.90
2023-04-20T16:01:59.358Z,8.98
2023-04-20T16:04:26.246Z,8.82
2023-04-20T16:06:59.354Z,9.35
2023-04-20T16:09:26.062Z,9.82
2023-04-20T16:11:52.796Z,9.30
2023-04-20T16:14:19.740Z,9.15
2023-04-20T16:16:46.646Z,9.05
2023-04-20T16:19:14.579Z,9.52
2023-04-20T16:21:41.304Z,9.02
2023-04-20T16:24:08.198Z,9.90
2023-04-20T16:26:34.908Z,8.43
2023-04-20T16:29:01.726Z,8.98
2023-04-20T16:31:29.605Z,9.50
2023-04-20T16:33:57.274Z,9.90
2023-04-20T16:36:25.326Z,9.75
2023-04-20T16:38:52.122Z,9.52
2023-04-20T16:41:18.819Z,10.38
2023-04-20T16:43:45.718Z,9.98
2023-04-20T16:46:13.921Z,9.38
2023-04-20T16:48:40.712Z,10.27
2023-04-20T16:51:07.451Z,9.25
2023-04-20T16:53:34.864Z,12.07
2023-04-20T16:56:01.638Z,11.98
2023-04-20T16:58:28.297Z,17.23
2023-04-20T17:00:55.028Z,18.10
2023-04-20T17:03:22.005Z,15.02
2023-04-20T17:05:49.182Z,15.48
2023-04-20T17:08:15.883Z,14.23
2023-04-20T17:10:42.604Z,12.38
2023-04-20T17:13:09.441Z,14.48
2023-04-20T17:15:36.723Z,13.40
2023-04-20T17:18:04.545Z,14.00
2023-04-20T17:20:31.327Z,13.27
2023-04-20T17:22:58.048Z,12.80
2023-04-20T17:25:24.755Z,14.65
2023-04-20T17:27:51.468Z,13.93
2023-04-20T17:30:18.611Z,13.38
2023-04-20T17:32:45.283Z,14.30
2023-04-20T17:35:11.972Z,13.68
2023-04-20T17:37:38.717Z,13.30
2023-04-20T17:40:06.291Z,11.30
2023-04-20T17:42:33.115Z,12.35
2023-04-20T17:44:59.858Z,12.90
2023-04-20T17:47:28.389Z,12.48
2023-04-20T17:49:56.178Z,12.70
2023-04-20T17:52:22.943Z,12.93
2023-04-20T17:54:49.994Z,13.85
2023-04-20T17:57:16.690Z,14.77
2023-04-20T17:59:43.402Z,17.95
2023-04-20T18:02:11.844Z,15.10
2023-04-20T18:04:39.123Z,16.67
2023-04-20T18:07:06.038Z,16.15
2023-04-20T18:09:32.853Z,16.38
2023-04-20T18:11:59.514Z,17.08
2023-04-20T18:14:26.196Z,18.00
2023-04-20T18:16:54.866Z,18.88
2023-04-20T18:19:21.602Z,21.98
2023-04-20T18:21:48.288Z,19.50
2023-04-20T18:24:14.992Z,19.60
2023-04-20T18:26:41.725Z,19.98
2023-04-20T18:29:08.393Z,19.83
2023-04-20T18:31:35.260Z,17.67
2023-04-20T18:34:01.963Z,17.70
2023-04-20T18:36:29.780Z,17.00
2023-04-20T18:38:57.352Z,16.52
2023-04-20T18:41:25.672Z,14.52
2023-04-20T18:43:56.602Z,15.70
2023-04-20T18:46:23.423Z,15.38
2023-04-20T18:48:50.107Z,14.63
2023-04-20T18:51:16.852Z,14.90
2023-04-20T18:53:43.533Z,17.25
2023-04-20T18:56:10.437Z,16.17
2023-04-20T18:58:37.101Z,15.77
2023-04-20T19:01:04.381Z,15.23
2023-04-20T19:03:32.182Z,14.15
2023-04-20T19:05:59.255Z,13.98
2023-04-20T19:08:25.937Z,15.32
2023-04-20T19:10:56.398Z,15.10
2023-04-20T19:13:23.607Z,17.50
2023-04-20T19:15:50.758Z,20.58
2023-04-20T19:18:17.419Z,18.85
2023-04-20T19:20:44.146Z,15.57
2023-04-20T19:23:11.079Z,14.85
2023-04-20T19:25:38.127Z,14.90
2023-04-20T19:28:08.016Z,16.73
2023-04-20T19:30:35.604Z,18.30
2023-04-20T19:33:04.914Z,16.88
2023-04-20T19:35:32.300Z,15.88
2023-04-20T19:37:59.859Z,17.40
2023-04-20T19:40:27.371Z,17.55
2023-04-20T19:42:54.136Z,16.23
2023-04-20T19:45:20.958Z,15.10
2023-04-20T19:47:47.728Z,14.07
2023-04-20T19:50:14.772Z,17.25
2023-04-20T19:52:41.659Z,14.02
2023-04-20T19:55:08.677Z,16.65
2023-04-20T19:57:35.393Z,14.90
2023-04-20T20:00:02.188Z,14.85
2023-04-20T20:02:29.055Z,14.73
2023-04-20T20:04:55.776Z,13.52
2023-04-20T20:07:22.442Z,12.85
2023-04-20T20:09:49.107Z,14.23
2023-04-20T20:12:16.447Z,13.85
2023-04-20T20:14:43.090Z,13.27
2023-04-20T20:17:09.775Z,11.63
2023-04-20T20:19:36.419Z,10.68
2023-04-20T20:22:03.119Z,11.52
2023-04-20T20:28:16.989Z,11.27
2023-04-20T20:30:45.306Z,9.27
2023-04-20T20:33:12.650Z,9.80
2023-04-20T20:35:39.920Z,10.05
2023-04-20T20:38:08.011Z,8.38
2023-04-20T20:40:35.440Z,7.97
2023-04-20T20:43:02.598Z,8.13
2023-04-20T20:45:30.228Z,8.23
2023-04-20T20:47:57.227Z,7.43
2023-04-20T20:50:24.474Z,8.63
2023-04-20T20:52:51.146Z,8.13
2023-04-20T20:55:17.955Z,7.30
2023-04-20T20:57:45.956Z,8.43
2023-04-20T21:00:13.799Z,7.80
2023-04-20T21:02:40.637Z,7.80
2023-04-20T21:05:07.714Z,11.48
2023-04-20T21:07:34.463Z,9.73
2023-04-20T21:10:01.267Z,11.15
2023-04-20T21:12:27.924Z,11.55
2023-04-20T21:14:54.668Z,13.55
2023-04-20T21:17:21.443Z,13.35
2023-04-20T21:19:48.117Z,10.68
2023-04-20T21:22:14.803Z,13.40
2023-04-20T21:24:41.479Z,12.50
2023-04-20T21:27:08.371Z,17.48
2023-04-20T21:29:35.051Z,14.75
2023-04-20T21:32:01.826Z,14.23
2023-04-20T21:34:28.627Z,13.68
2023-04-20T21:36:55.497Z,11.18
2023-04-20T21:39:22.183Z,10.63
2023-04-20T21:41:48.881Z,9.07
2023-04-20T21:44:15.570Z,13.02
2023-04-20T21:46:42.307Z,11.02
2023-04-20T21:49:09.000Z,10.07
2023-04-20T21:51:35.658Z,8.70
2023-04-20T21:54:02.338Z,9.23
2023-04-20T21:56:29.059Z,7.32
2023-04-20T21:58:55.723Z,7.57
2023-04-20T22:01:22.538Z,9.30
2023-04-20T22:03:49.459Z,8.45
2023-04-20T22:06:16.249Z,10.60
2023-04-20T22:08:43.069Z,9.85
2023-04-20T22:11:09.918Z,7.75
2023-04-20T22:13:36.876Z,9.25
2023-04-20T22:16:04.114Z,9.00
2023-04-20T22:18:31.030Z,8.50
2023-04-20T22:20:57.966Z,6.93
2023-04-20T22:23:24.653Z,6.20
2023-04-20T22:25:51.365Z,6.70
2023-04-20T22:28:18.054Z,6.47
2023-04-20T22:30:44.742Z,6.57
2023-04-20T22:33:11.440Z,6.30
2023-04-20T22:35:38.112Z,7.57
2023-04-20T22:38:04.796Z,8.25
2023-04-20T22:40:31.521Z,7.20
2023-04-20T22:42:58.225Z,7.10
2023-04-20T22:45:24.964Z,7.55
2023-04-20T22:47:51.716Z,6.63
2023-04-20T22:50:18.650Z,6.47
2023-04-20T22:52:46.092Z,6.30
2023-04-20T22:55:12.866Z,7.93
2023-04-20T22:57:39.700Z,6.72
2023-04-20T23:00:10.356Z,7.63
2023-04-20T23:02:37.866Z,7.53
2023-04-20T23:05:05.710Z,6.82
2023-04-20T23:07:33.229Z,7.05
2023-04-20T23:10:00.529Z,7.28
2023-04-20T23:12:29.460Z,8.10
2023-04-20T23:15:00.503Z,8.45
2023-04-20T23:17:28.535Z,8.98
2023-04-20T23:19:56.214Z,8.65
2023-04-20T23:22:23.226Z,8.55
2023-04-20T23:24:50.402Z,8.70
2023-04-20T23:27:17.325Z,8.00
2023-04-20T23:29:44.048Z,6.82
2023-04-20T23:32:10.872Z,7.15
2023-04-20T23:34:37.684Z,7.85
2023-04-20T23:37:04.427Z,7.95
2023-04-20T23:39:31.121Z,8.90
2023-04-20T23:41:58.143Z,8.85
2023-04-20T23:44:24.858Z,9.77
2023-04-20T23:46:51.518Z,10.68
2023-04-20T23:49:18.545Z,9.88
2023-04-20T23:51:45.537Z,9.68
2023-04-20T23:54:12.202Z,9.85
2023-04-20T23:56:38.905Z,10.65
2023-04-20T23:59:05.770Z,10.80
